createdAt,value
2022-09-25T00:01:26.468Z,4.10
2022-09-25T00:03:54.867Z,4.30
2022-09-25T00:06:25.897Z,4.30
2022-09-25T00:08:54.992Z,3.80
2022-09-25T00:11:32.368Z,3.80
2022-09-25T00:14:02.156Z,3.70
2022-09-25T00:16:32.942Z,4.10
2022-09-25T00:19:20.077Z,4.40
2022-09-25T00:21:52.107Z,4.30
2022-09-25T00:24:20.456Z,3.90
2022-09-25T00:26:48.588Z,4.00
2022-09-25T00:29:19.380Z,3.20
2022-09-25T00:31:47.523Z,3.40
2022-09-25T00:34:15.571Z,3.50
2022-09-25T00:36:43.858Z,3.40
2022-09-25T00:39:11.936Z,3.80
2022-09-25T00:41:39.979Z,3.30
2022-09-25T00:44:46.545Z,3.30
2022-09-25T00:47:20.604Z,3.30
2022-09-25T00:52:17.361Z,4.30
2022-09-25T00:54:59.252Z,3.20
2022-09-25T00:57:31.191Z,3.30
2022-09-25T01:00:04.703Z,3.30
2022-09-25T01:02:39.803Z,3.30
2022-09-25T01:05:15.073Z,3.40
2022-09-25T01:07:46.533Z,3.80
2022-09-25T01:10:16.439Z,3.80
2022-09-25T01:12:48.178Z,4.20
2022-09-25T01:15:20.083Z,4.30
2022-09-25T01:18:06.512Z,3.50
2022-09-25T01:20:47.017Z,4.20
2022-09-25T01:23:56.674Z,4.70
2022-09-25T01:26:49.342Z,4.50
2022-09-25T01:29:19.998Z,4.60
2022-09-25T01:32:06.078Z,4.40
2022-09-25T01:34:53.159Z,4.40
2022-09-25T01:37:30.111Z,4.40
2022-09-25T01:40:37.424Z,4.10
2022-09-25T01:43:18.456Z,4.30
2022-09-25T01:45:57.633Z,4.90
2022-09-25T01:48:32.122Z,4.70
2022-09-25T01:51:09.507Z,4.70
2022-09-25T01:53:48.003Z,6.00
2022-09-25T01:56:29.462Z,9.90
2022-09-25T01:59:03.638Z,9.50
2022-09-25T02:01:39.098Z,6.20
2022-09-25T02:04:12.979Z,7.00
2022-09-25T02:06:46.791Z,6.10
2022-09-25T02:09:22.981Z,5.10
2022-09-25T02:11:58.575Z,5.30
2022-09-25T02:14:38.742Z,4.80
2022-09-25T02:17:12.743Z,4.50
2022-09-25T02:19:59.355Z,5.10
2022-09-25T02:22:35.391Z,5.60
2022-09-25T02:25:19.491Z,6.90
2022-09-25T02:27:47.580Z,5.00
2022-09-25T02:30:15.708Z,5.70
2022-09-25T02:32:43.766Z,5.40
2022-09-25T02:35:11.823Z,5.80
2022-09-25T02:37:39.933Z,5.00
2022-09-25T02:40:10.808Z,5.00
2022-09-25T02:42:45.136Z,5.20
2022-09-25T02:45:44.092Z,5.50
2022-09-25T02:48:22.043Z,4.90
2022-09-25T02:51:41.260Z,4.70
2022-09-25T02:54:18.712Z,5.30
2022-09-25T02:57:04.961Z,5.30
2022-09-25T02:59:39.467Z,5.10
2022-09-25T03:02:10.256Z,6.00
2022-09-25T03:04:40.132Z,6.10
2022-09-25T03:07:08.602Z,6.30
2022-09-25T03:09:41.642Z,6.90
2022-09-25T03:12:10.352Z,6.50
2022-09-25T03:14:38.396Z,9.20
2022-09-25T03:17:08.441Z,9.70
2022-09-25T03:19:36.579Z,9.00
2022-09-25T03:22:05.233Z,7.70
2022-09-25T03:24:33.448Z,6.90
2022-09-25T03:27:01.551Z,8.30
2022-09-25T03:29:31.260Z,8.80
2022-09-25T03:31:59.455Z,8.10
2022-09-25T03:34:27.501Z,7.40
2022-09-25T03:36:55.560Z,7.60
2022-09-25T03:39:23.729Z,7.60
2022-09-25T03:41:51.797Z,8.80
2022-09-25T03:44:19.827Z,6.20
2022-09-25T03:46:47.858Z,6.80
2022-09-25T03:49:15.856Z,7.80
2022-09-25T03:51:43.892Z,7.30
2022-09-25T03:54:12.039Z,6.80
2022-09-25T03:56:40.258Z,7.30
2022-09-25T03:59:08.298Z,6.00
2022-09-25T04:01:37.178Z,6.00
2022-09-25T04:04:05.221Z,6.00
2022-09-25T04:06:33.324Z,6.40
2022-09-25T04:09:01.342Z,6.80
2022-09-25T04:11:29.390Z,7.20
2022-09-25T04:13:57.471Z,7.40
2022-09-25T04:16:26.100Z,5.90
2022-09-25T04:18:54.266Z,6.60
2022-09-25T04:21:22.345Z,5.10
2022-09-25T04:24:09.409Z,5.40
2022-09-25T04:26:37.515Z,4.80
2022-09-25T04:29:06.261Z,6.00
2022-09-25T04:31:34.518Z,5.20
2022-09-25T04:34:03.162Z,7.00
2022-09-25T04:36:31.229Z,6.40
2022-09-25T04:38:59.345Z,4.90
2022-09-25T04:41:27.865Z,4.40
2022-09-25T04:43:55.995Z,4.50
2022-09-25T04:46:24.096Z,4.00
2022-09-25T04:48:52.172Z,4.20
2022-09-25T04:51:20.570Z,4.70
2022-09-25T04:53:48.612Z,4.50
2022-09-25T04:56:17.081Z,4.60
2022-09-25T04:58:48.051Z,5.70
2022-09-25T05:01:18.701Z,5.60
2022-09-25T05:03:53.945Z,4.70
2022-09-25T05:06:23.444Z,4.50
2022-09-25T05:08:53.253Z,5.50
2022-09-25T05:11:21.410Z,6.40
2022-09-25T05:13:51.504Z,7.80
2022-09-25T05:16:20.318Z,6.00
2022-09-25T05:18:48.819Z,7.90
2022-09-25T05:21:16.972Z,6.90
2022-09-25T05:23:45.084Z,5.70
2022-09-25T05:26:13.403Z,6.40
2022-09-25T05:28:41.509Z,6.80
2022-09-25T05:31:09.846Z,6.30
2022-09-25T05:33:38.038Z,5.80
2022-09-25T05:36:07.966Z,7.00
2022-09-25T05:38:39.056Z,7.50
2022-09-25T05:41:09.559Z,7.50
2022-09-25T05:43:43.090Z,6.80
2022-09-25T05:46:11.969Z,6.80
2022-09-25T05:48:40.422Z,6.90
2022-09-25T05:51:09.591Z,5.00
2022-09-25T05:53:38.444Z,4.80
2022-09-25T05:56:07.327Z,3.60
2022-09-25T05:58:36.004Z,3.20
2022-09-25T06:01:06.418Z,3.30
2022-09-25T06:03:35.124Z,3.90
2022-09-25T06:06:03.649Z,4.10
2022-09-25T06:08:31.889Z,5.20
2022-09-25T06:11:03.612Z,3.90
2022-09-25T06:13:34.999Z,4.70
2022-09-25T06:16:05.749Z,4.10
2022-09-25T06:18:34.308Z,4.00
2022-09-25T06:21:05.553Z,4.40
2022-09-25T06:23:33.877Z,3.90
2022-09-25T06:26:04.800Z,4.60
2022-09-25T06:28:34.708Z,4.70
2022-09-25T06:31:04.463Z,4.20
2022-09-25T06:33:33.159Z,3.90
2022-09-25T06:36:01.633Z,3.90
2022-09-25T06:38:29.905Z,4.50
2022-09-25T06:41:00.431Z,4.50
2022-09-25T06:43:30.472Z,3.60
2022-09-25T06:46:02.981Z,4.10
2022-09-25T06:48:33.839Z,3.50
2022-09-25T06:51:02.015Z,3.70
2022-09-25T06:53:30.320Z,4.90
2022-09-25T06:56:01.234Z,4.10
2022-09-25T06:58:30.922Z,4.20
2022-09-25T07:00:59.618Z,3.60
2022-09-25T07:03:46.258Z,3.90
2022-09-25T07:06:16.572Z,3.90
2022-09-25T07:08:48.401Z,3.90
2022-09-25T07:11:28.128Z,3.30
2022-09-25T07:13:56.377Z,3.20
2022-09-25T07:16:27.271Z,4.80
2022-09-25T07:19:00.894Z,3.90
2022-09-25T07:21:30.749Z,4.60
2022-09-25T07:23:59.639Z,3.60
2022-09-25T07:26:30.134Z,3.40
2022-09-25T07:29:03.937Z,3.80
2022-09-25T07:31:34.418Z,4.00
2022-09-25T07:34:09.498Z,3.40
2022-09-25T07:36:40.212Z,4.30
2022-09-25T07:39:08.559Z,3.60
2022-09-25T07:41:37.688Z,5.00
2022-09-25T07:44:27.338Z,4.00
2022-09-25T07:46:54.244Z,4.30
2022-09-25T07:49:22.386Z,4.30
2022-09-25T07:51:50.454Z,4.30
2022-09-25T07:54:18.501Z,4.30
2022-09-25T07:56:46.600Z,4.40
2022-09-25T07:59:14.753Z,3.70
2022-09-25T08:01:44.971Z,3.60
2022-09-25T08:04:15.364Z,3.50
2022-09-25T08:06:43.417Z,3.30
2022-09-25T08:09:12.455Z,3.20
2022-09-25T08:11:42.004Z,2.90
2022-09-25T08:14:14.400Z,3.20
2022-09-25T08:16:43.544Z,3.40
2022-09-25T08:19:12.300Z,4.40
2022-09-25T08:21:40.399Z,3.60
2022-09-25T08:24:08.493Z,3.40
2022-09-25T08:26:37.178Z,3.80
2022-09-25T08:29:05.267Z,3.60
2022-09-25T08:31:34.865Z,3.40
2022-09-25T08:34:21.525Z,3.10
2022-09-25T08:36:52.072Z,2.80
2022-09-25T08:39:20.200Z,2.70
2022-09-25T08:41:55.137Z,2.60
2022-09-25T08:45:02.745Z,2.80
2022-09-25T08:47:56.970Z,2.70
2022-09-25T08:50:26.967Z,2.70
2022-09-25T08:53:05.941Z,2.40
2022-09-25T08:55:58.298Z,2.50
2022-09-25T08:58:29.878Z,2.60
2022-09-25T09:01:02.299Z,2.40
2022-09-25T09:03:33.697Z,2.70
2022-09-25T09:06:06.288Z,2.40
2022-09-25T09:08:39.188Z,2.70
2022-09-25T09:11:19.774Z,1.90
2022-09-25T09:14:05.062Z,2.50
2022-09-25T09:16:44.939Z,2.50
2022-09-25T09:19:13.883Z,2.50
2022-09-25T09:21:51.889Z,2.50
2022-09-25T09:24:35.144Z,2.10
2022-09-25T09:27:23.869Z,2.30
2022-09-25T09:29:51.958Z,1.80
2022-09-25T09:32:33.313Z,2.10
2022-09-25T09:35:06.749Z,1.70
2022-09-25T09:37:44.574Z,1.80
2022-09-25T09:40:22.441Z,1.60
2022-09-25T09:43:11.653Z,1.90
2022-09-25T09:45:49.519Z,1.80
2022-09-25T09:48:37.656Z,1.30
2022-09-25T09:51:16.869Z,1.30
2022-09-25T09:53:56.287Z,1.20
2022-09-25T09:56:35.658Z,1.40
2022-09-25T09:59:07.272Z,1.60
2022-09-25T10:01:41.797Z,2.00
2022-09-25T10:04:24.490Z,2.00
2022-09-25T10:06:58.387Z,1.70
2022-09-25T10:09:27.836Z,1.90
2022-09-25T10:12:15.526Z,1.60
2022-09-25T10:14:47.510Z,1.60
2022-09-25T10:17:18.420Z,1.60
2022-09-25T10:19:55.771Z,1.40
2022-09-25T10:22:37.506Z,1.70
2022-09-25T10:25:06.916Z,1.50
2022-09-25T10:27:49.103Z,1.50
2022-09-25T10:30:22.546Z,1.30
2022-09-25T10:33:20.485Z,1.50
2022-09-25T10:35:51.214Z,1.40
2022-09-25T10:38:33.900Z,1.40
2022-09-25T10:41:04.401Z,1.30
2022-09-25T10:43:32.844Z,1.20
2022-09-25T10:46:15.527Z,1.40
2022-09-25T10:49:02.295Z,1.20
2022-09-25T10:51:32.585Z,1.10
2022-09-25T10:54:10.052Z,1.20
2022-09-25T10:56:39.871Z,1.10
2022-09-25T10:59:20.496Z,1.30
2022-09-25T11:01:51.729Z,1.40
2022-09-25T11:04:24.909Z,1.50
2022-09-25T11:06:58.320Z,1.00
2022-09-25T11:09:29.302Z,1.50
2022-09-25T11:12:25.984Z,1.40
2022-09-25T11:15:02.595Z,1.20
2022-09-25T11:17:38.013Z,1.20
2022-09-25T11:20:16.579Z,1.30
2022-09-25T11:23:23.947Z,1.50
2022-09-25T11:26:20.701Z,1.40
2022-09-25T11:28:56.488Z,1.30
2022-09-25T11:31:35.612Z,1.10
2022-09-25T11:34:11.066Z,1.20
2022-09-25T11:36:46.173Z,1.10
2022-09-25T11:39:51.166Z,1.40
2022-09-25T11:42:31.456Z,1.00
2022-09-25T11:45:15.186Z,1.30
2022-09-25T11:47:55.630Z,1.20
2022-09-25T11:50:38.342Z,0.90
2022-09-25T11:53:46.580Z,1.10
2022-09-25T11:56:38.647Z,1.20
2022-09-25T11:59:21.759Z,1.10
2022-09-25T12:02:16.449Z,1.20
2022-09-25T12:05:32.433Z,1.10
2022-09-25T12:08:24.526Z,0.90
2022-09-25T12:11:11.749Z,1.10
2022-09-25T12:14:07.809Z,0.90
2022-09-25T12:16:54.494Z,1.00
2022-09-25T12:19:42.441Z,1.10
2022-09-25T12:22:20.138Z,1.10
2022-09-25T12:25:00.838Z,1.10
2022-09-25T12:27:47.420Z,0.80
2022-09-25T12:30:25.354Z,1.00
2022-09-25T12:33:02.955Z,1.00
2022-09-25T12:35:45.364Z,1.10
2022-09-25T12:38:35.378Z,1.10
2022-09-25T12:41:08.964Z,1.00
2022-09-25T12:43:59.483Z,1.10
2022-09-25T12:46:46.939Z,0.70
2022-09-25T12:49:42.876Z,0.90
2022-09-25T12:52:23.466Z,1.00
2022-09-25T12:55:13.752Z,0.90
2022-09-25T12:57:49.033Z,1.30
2022-09-25T13:00:21.590Z,1.30
2022-09-25T13:02:55.713Z,0.70
2022-09-25T13:06:07.575Z,1.30
2022-09-25T13:08:46.316Z,1.20
2022-09-25T13:11:45.480Z,1.00
2022-09-25T13:14:40.176Z,1.50
2022-09-25T13:17:13.084Z,1.10
2022-09-25T13:19:41.338Z,1.20
2022-09-25T13:22:12.693Z,1.10
2022-09-25T13:25:13.691Z,1.10
2022-09-25T13:27:45.935Z,1.20
2022-09-25T13:30:29.041Z,1.20
2022-09-25T13:33:01.346Z,1.50
2022-09-25T13:35:32.214Z,1.80
2022-09-25T13:38:39.072Z,1.50
2022-09-25T13:41:14.846Z,1.40
2022-09-25T13:43:42.976Z,1.70
2022-09-25T13:46:18.042Z,1.40
2022-09-25T13:48:46.370Z,1.40
2022-09-25T13:51:28.258Z,1.40
2022-09-25T13:54:16.320Z,0.90
2022-09-25T13:56:44.858Z,1.30
2022-09-25T13:59:14.016Z,1.80
2022-09-25T14:01:55.706Z,1.10
2022-09-25T14:04:30.846Z,2.00
2022-09-25T14:07:13.442Z,1.90
2022-09-25T14:09:46.234Z,1.50
2022-09-25T14:12:23.378Z,1.50
2022-09-25T14:14:59.755Z,1.50
2022-09-25T14:17:32.310Z,1.60
2022-09-25T14:20:05.557Z,1.80
2022-09-25T14:22:33.718Z,1.50
2022-09-25T14:25:02.341Z,1.70
2022-09-25T14:27:30.510Z,1.90
2022-09-25T14:30:16.113Z,2.40
2022-09-25T14:33:19.273Z,2.30
2022-09-25T14:36:16.750Z,1.80
2022-09-25T14:39:06.637Z,2.60
2022-09-25T14:42:10.117Z,1.90
2022-09-25T14:45:00.191Z,2.80
2022-09-25T14:47:35.263Z,5.00
2022-09-25T14:50:05.665Z,5.30
2022-09-25T14:52:37.535Z,5.40
2022-09-25T14:55:07.624Z,3.80
2022-09-25T14:57:39.766Z,5.10
2022-09-25T15:00:15.886Z,4.60
2022-09-25T15:02:46.975Z,6.30
2022-09-25T15:05:27.534Z,5.10
2022-09-25T15:07:59.503Z,5.90
2022-09-25T15:10:36.587Z,4.60
2022-09-25T15:13:17.710Z,6.50
2022-09-25T15:16:10.658Z,4.50
2022-09-25T15:18:41.877Z,12.00
2022-09-25T15:21:21.328Z,17.30
2022-09-25T15:23:49.816Z,11.60
2022-09-25T15:26:18.754Z,19.80
2022-09-25T15:28:47.661Z,20.80
2022-09-25T15:31:16.137Z,19.00
2022-09-25T15:33:44.458Z,29.10
2022-09-25T15:36:23.881Z,20.40
2022-09-25T15:38:57.689Z,17.30
2022-09-25T15:41:26.936Z,13.40
2022-09-25T15:44:20.775Z,8.90
2022-09-25T15:46:53.042Z,15.00
2022-09-25T15:49:41.767Z,14.40
2022-09-25T15:52:22.861Z,16.00
2022-09-25T15:54:51.376Z,8.00
2022-09-25T15:57:29.285Z,5.80
2022-09-25T16:00:18.184Z,8.10
2022-09-25T16:03:20.204Z,7.20
2022-09-25T16:05:50.093Z,3.60
2022-09-25T16:08:24.319Z,6.40
2022-09-25T16:11:25.350Z,8.70
2022-09-25T16:14:12.701Z,8.30
2022-09-25T16:16:47.773Z,12.00
2022-09-25T16:19:27.427Z,17.00
2022-09-25T16:21:55.885Z,16.40
2022-09-25T16:24:26.893Z,11.20
2022-09-25T16:27:00.990Z,7.50
2022-09-25T16:29:36.655Z,7.30
2022-09-25T16:32:08.282Z,9.60
2022-09-25T16:34:38.979Z,27.30
2022-09-25T16:37:20.830Z,20.80
2022-09-25T16:40:23.096Z,14.10
2022-09-25T16:42:54.919Z,10.40
2022-09-25T16:45:29.986Z,14.80
2022-09-25T16:47:58.665Z,15.60
2022-09-25T16:50:32.303Z,13.00
2022-09-25T16:53:03.761Z,11.90
2022-09-25T16:55:34.247Z,14.80
2022-09-25T16:58:03.471Z,12.10
2022-09-25T17:00:31.997Z,9.60
2022-09-25T17:03:00.753Z,13.50
2022-09-25T17:05:31.270Z,12.00
2022-09-25T17:08:15.279Z,12.30
2022-09-25T17:13:14.903Z,17.60
2022-09-25T17:15:43.387Z,10.30
2022-09-25T17:18:17.147Z,10.60
2022-09-25T17:20:45.646Z,10.00
2022-09-25T17:23:15.336Z,5.70
2022-09-25T17:25:48.479Z,12.90
2022-09-25T17:28:17.274Z,15.50
2022-09-25T17:30:46.358Z,30.10
2022-09-25T17:33:20.542Z,17.30
2022-09-25T17:36:06.024Z,10.90
2022-09-25T17:38:34.871Z,23.10
2022-09-25T17:41:06.294Z,9.10
2022-09-25T17:43:34.528Z,7.20
2022-09-25T17:46:02.752Z,6.90
2022-09-25T17:48:31.997Z,12.40
2022-09-25T17:51:02.752Z,9.80
2022-09-25T17:53:33.872Z,10.60
2022-09-25T17:56:02.490Z,8.50
2022-09-25T17:58:32.200Z,5.00
2022-09-25T18:01:01.949Z,4.90
2022-09-25T18:03:31.015Z,4.40
2022-09-25T18:05:59.209Z,7.50
2022-09-25T18:08:27.276Z,5.50
2022-09-25T18:10:58.758Z,5.50
2022-09-25T18:13:26.865Z,5.50
2022-09-25T18:15:58.089Z,5.70
2022-09-25T18:18:46.613Z,5.20
2022-09-25T18:21:33.758Z,3.40
2022-09-25T18:24:02.359Z,4.00
2022-09-25T18:26:31.619Z,4.40
2022-09-25T18:28:59.862Z,3.70
2022-09-25T18:31:28.000Z,2.90
2022-09-25T18:33:56.355Z,3.00
2022-09-25T18:36:25.308Z,3.20
2022-09-25T18:38:53.339Z,2.90
2022-09-25T18:41:21.538Z,2.60
2022-09-25T18:43:49.606Z,2.70
2022-09-25T18:46:17.940Z,3.20
2022-09-25T18:48:48.080Z,3.30
2022-09-25T18:51:17.261Z,3.00
2022-09-25T18:53:50.866Z,2.70
2022-09-25T18:56:20.824Z,2.80
2022-09-25T18:58:49.861Z,2.50
2022-09-25T19:01:18.042Z,2.70
2022-09-25T19:03:53.257Z,2.10
2022-09-25T19:06:21.805Z,2.50
2022-09-25T19:08:55.927Z,2.10
2022-09-25T19:11:28.031Z,2.30
2022-09-25T19:13:56.649Z,2.00
2022-09-25T19:16:24.993Z,2.20
2022-09-25T19:18:54.352Z,2.80
2022-09-25T19:21:22.878Z,2.90
2022-09-25T19:23:51.214Z,3.30
2022-09-25T19:26:22.568Z,3.10
2022-09-25T19:28:50.555Z,2.90
2022-09-25T19:31:24.241Z,2.60
2022-09-25T19:33:54.182Z,2.60
2022-09-25T19:36:25.128Z,2.10
2022-09-25T19:38:54.718Z,3.00
2022-09-25T19:41:26.613Z,2.50
2022-09-25T19:43:59.384Z,1.90
2022-09-25T19:46:29.043Z,2.00
2022-09-25T19:48:57.135Z,2.70
2022-09-25T19:51:26.003Z,3.00
2022-09-25T19:53:54.274Z,2.30
2022-09-25T19:56:22.624Z,2.60
2022-09-25T19:58:51.226Z,2.50
2022-09-25T20:01:30.282Z,2.50
2022-09-25T20:03:59.173Z,2.60
2022-09-25T20:06:27.981Z,2.50
2022-09-25T20:09:03.624Z,2.70
2022-09-25T20:11:33.783Z,2.20
2022-09-25T20:14:04.719Z,2.00
2022-09-25T20:16:34.456Z,2.00
2022-09-25T20:19:05.244Z,2.30
2022-09-25T20:21:36.495Z,2.00
2022-09-25T20:24:07.150Z,2.10
2022-09-25T20:26:36.659Z,2.30
2022-09-25T20:29:12.459Z,2.00
2022-09-25T20:31:43.282Z,2.30
2022-09-25T20:34:17.418Z,2.00
2022-09-25T20:36:46.755Z,2.50
2022-09-25T20:39:20.627Z,2.50
2022-09-25T20:41:50.356Z,2.10
2022-09-25T20:44:18.578Z,2.00
2022-09-25T20:46:46.655Z,1.80
2022-09-25T20:49:15.117Z,2.00
2022-09-25T20:51:43.165Z,1.90
2022-09-25T20:54:11.572Z,1.80
2022-09-25T20:56:44.961Z,1.80
2022-09-25T20:59:13.997Z,1.70
2022-09-25T21:01:42.116Z,1.50
2022-09-25T21:04:10.936Z,1.70
2022-09-25T21:06:41.007Z,1.70
2022-09-25T21:09:23.273Z,1.40
2022-09-25T21:11:52.881Z,1.60
2022-09-25T21:14:23.941Z,1.60
2022-09-25T21:16:53.081Z,1.60
2022-09-25T21:19:27.097Z,1.70
2022-09-25T21:21:55.482Z,1.50
2022-09-25T21:24:23.620Z,1.60
2022-09-25T21:26:51.850Z,1.90
2022-09-25T21:29:20.265Z,1.40
2022-09-25T21:31:50.611Z,1.60
2022-09-25T21:34:19.974Z,1.60
2022-09-25T21:36:48.647Z,1.70
2022-09-25T21:39:16.890Z,1.60
2022-09-25T21:41:44.989Z,1.60
2022-09-25T21:44:15.049Z,1.70
2022-09-25T21:46:44.013Z,1.70
2022-09-25T21:49:21.702Z,1.80
2022-09-25T21:51:49.847Z,1.80
2022-09-25T21:54:18.737Z,1.90
2022-09-25T21:56:49.281Z,1.60
2022-09-25T21:59:17.581Z,1.80
2022-09-25T22:01:46.335Z,1.90
2022-09-25T22:04:15.558Z,1.50
2022-09-25T22:06:47.241Z,2.00
2022-09-25T22:09:18.876Z,1.50
2022-09-25T22:11:48.364Z,1.60
2022-09-25T22:14:17.731Z,1.50
2022-09-25T22:16:48.716Z,1.40
2022-09-25T22:19:23.034Z,1.50
2022-09-25T22:24:21.841Z,2.10
2022-09-25T22:26:53.258Z,1.70
2022-09-25T22:29:21.985Z,2.00
2022-09-25T22:31:50.082Z,2.00
2022-09-25T22:34:26.878Z,2.10
2022-09-25T22:36:59.550Z,2.50
2022-09-25T22:39:29.861Z,2.20
2022-09-25T22:41:58.401Z,1.90
2022-09-25T22:44:26.597Z,2.00
2022-09-25T22:46:55.254Z,1.90
2022-09-25T22:49:23.358Z,1.80
2022-09-25T22:51:51.654Z,1.70
2022-09-25T22:54:19.828Z,2.30
2022-09-25T22:56:47.884Z,2.10
2022-09-25T22:59:19.911Z,2.20
2022-09-25T23:01:51.336Z,1.90
2022-09-25T23:04:24.815Z,2.20
2022-09-25T23:06:53.300Z,2.00
2022-09-25T23:09:26.083Z,2.10
2022-09-25T23:12:11.981Z,1.80
2022-09-25T23:14:40.156Z,1.70
2022-09-25T23:17:08.380Z,1.90
2022-09-25T23:19:36.446Z,2.10
2022-09-25T23:22:05.384Z,2.50
2022-09-25T23:24:33.861Z,2.40
2022-09-25T23:27:04.678Z,1.80
2022-09-25T23:29:32.725Z,2.20
2022-09-25T23:32:01.025Z,2.40
2022-09-25T23:34:29.094Z,2.20
2022-09-25T23:36:57.121Z,2.70
2022-09-25T23:39:25.223Z,1.70
2022-09-25T23:41:53.241Z,2.20
2022-09-25T23:44:21.332Z,2.20
2022-09-25T23:46:49.517Z,2.10
2022-09-25T23:49:17.659Z,2.20
2022-09-25T23:51:46.477Z,2.00
2022-09-25T23:54:15.041Z,1.80
2022-09-25T23:56:43.125Z,1.90
2022-09-25T23:59:12.828Z,2.20
